sensor_id;sensor_type;location;lat;lon;timestamp;temperature;humidity
1447;DHT22;717;51.522;7.266;2022-07-22T00:00:38;21.90;99.90
1447;DHT22;717;51.522;7.266;2022-07-22T00:03:05;22.00;99.90
1447;DHT22;717;51.522;7.266;2022-07-22T00:05:31;22.00;99.90
1447;DHT22;717;51.522;7.266;2022-07-22T00:07:58;22.00;99.90
1447;DHT22;717;51.522;7.266;2022-07-22T00:10:25;22.00;99.90
1447;DHT22;717;51.522;7.266;2022-07-22T00:12:53;22.00;99.90
1447;DHT22;717;51.522;7.266;2022-07-22T00:15:20;22.10;99.90
1447;DHT22;717;51.522;7.266;2022-07-22T00:17:47;22.00;99.90
1447;DHT22;717;51.522;7.266;2022-07-22T00:20:13;22.00;99.90
1447;DHT22;717;51.522;7.266;2022-07-22T00:22:40;22.10;99.90
1447;DHT22;717;51.522;7.266;2022-07-22T00:25:07;22.10;99.90
1447;DHT22;717;51.522;7.266;2022-07-22T00:27:34;22.10;99.90
1447;DHT22;717;51.522;7.266;2022-07-22T00:30:03;22.10;99.90
1447;DHT22;717;51.522;7.266;2022-07-22T00:32:30;22.10;99.90
1447;DHT22;717;51.522;7.266;2022-07-22T00:34:56;22.10;99.90
1447;DHT22;717;51.522;7.266;2022-07-22T00:37:23;22.10;99.90
1447;DHT22;717;51.522;7.266;2022-07-22T00:39:50;22.10;99.90
1447;DHT22;717;51.522;7.266;2022-07-22T00:42:17;22.10;99.90
1447;DHT22;717;51.522;7.266;2022-07-22T00:44:44;22.10;99.90
1447;DHT22;717;51.522;7.266;2022-07-22T00:47:13;22.20;99.90
1447;DHT22;717;51.522;7.266;2022-07-22T00:49:39;22.10;99.90
1447;DHT22;717;51.522;7.266;2022-07-22T00:52:06;22.10;99.90
1447;DHT22;717;51.522;7.266;2022-07-22T00:54:33;22.10;99.90
1447;DHT22;717;51.522;7.266;2022-07-22T00:57:00;22.10;99.90
1447;DHT22;717;51.522;7.266;2022-07-22T00:59:26;22.10;99.90
1447;DHT22;717;51.522;7.266;2022-07-22T01:01:53;22.10;99.90
1447;DHT22;717;51.522;7.266;2022-07-22T01:04:21;22.10;99.90
1447;DHT22;717;51.522;7.266;2022-07-22T01:06:48;22.10;99.90
1447;DHT22;717;51.522;7.266;2022-07-22T01:09:15;22.10;99.90
1447;DHT22;717;51.522;7.266;2022-07-22T01:11:42;22.10;99.90
1447;DHT22;717;51.522;7.266;2022-07-22T01:14:09;22.10;99.90
1447;DHT22;717;51.522;7.266;2022-07-22T01:16:36;22.10;99.90
1447;DHT22;717;51.522;7.266;2022-07-22T01:19:03;22.10;99.90
1447;DHT22;717;51.522;7.266;2022-07-22T01:21:31;22.10;99.90
1447;DHT22;717;51.522;7.266;2022-07-22T01:23:59;22.10;99.90
1447;DHT22;717;51.522;7.266;2022-07-22T01:26:25;22.10;99.90
1447;DHT22;717;51.522;7.266;2022-07-22T01:28:52;22.10;99.90
1447;DHT22;717;51.522;7.266;2022-07-22T01:31:19;22.10;99.90
1447;DHT22;717;51.522;7.266;2022-07-22T01:33:46;22.10;99.90
1447;DHT22;717;51.522;7.266;2022-07-22T01:36:12;22.10;99.90
1447;DHT22;717;51.522;7.266;2022-07-22T01:38:40;22.10;99.90
1447;DHT22;717;51.522;7.266;2022-07-22T01:41:07;22.10;99.90
1447;DHT22;717;51.522;7.266;2022-07-22T01:43:34;22.00;99.90
1447;DHT22;717;51.522;7.266;2022-07-22T01:46:01;22.00;99.90
1447;DHT22;717;51.522;7.266;2022-07-22T01:48:28;22.00;99.90
1447;DHT22;717;51.522;7.266;2022-07-22T01:50:55;22.00;99.90
1447;DHT22;717;51.522;7.266;2022-07-22T01:53:22;22.00;99.90
1447;DHT22;717;51.522;7.266;2022-07-22T01:55:50;22.00;99.90
1447;DHT22;717;51.522;7.266;2022-07-22T01:58:17;21.90;99.90
1447;DHT22;717;51.522;7.266;2022-07-22T02:00:44;22.00;99.90
1447;DHT22;717;51.522;7.266;2022-07-22T02:03:11;22.00;99.90
1447;DHT22;717;51.522;7.266;2022-07-22T02:05:38;22.00;99.90
1447;DHT22;717;51.522;7.266;2022-07-22T02:08:07;22.00;99.90
1447;DHT22;717;51.522;7.266;2022-07-22T02:10:34;22.00;99.90
1447;DHT22;717;51.522;7.266;2022-07-22T02:13:03;22.00;99.90
1447;DHT22;717;51.522;7.266;2022-07-22T02:15:30;21.90;99.90
1447;DHT22;717;51.522;7.266;2022-07-22T02:17:57;21.90;99.90
1447;DHT22;717;51.522;7.266;2022-07-22T02:20:24;21.90;99.90
1447;DHT22;717;51.522;7.266;2022-07-22T02:22:50;21.90;99.90
1447;DHT22;717;51.522;7.266;2022-07-22T02:25:17;21.90;99.90
1447;DHT22;717;51.522;7.266;2022-07-22T02:27:44;21.80;99.90
1447;DHT22;717;51.522;7.266;2022-07-22T02:30:12;21.80;99.90
1447;DHT22;717;51.522;7.266;2022-07-22T02:32:39;21.80;99.90
1447;DHT22;717;51.522;7.266;2022-07-22T02:35:06;21.80;99.90
1447;DHT22;717;51.522;7.266;2022-07-22T02:37:33;21.80;99.90
1447;DHT22;717;51.522;7.266;2022-07-22T02:40:02;21.80;99.90
1447;DHT22;717;51.522;7.266;2022-07-22T02:42:29;21.80;99.90
1447;DHT22;717;51.522;7.266;2022-07-22T02:44:56;21.80;99.90
1447;DHT22;717;51.522;7.266;2022-07-22T02:47:24;21.80;99.90
1447;DHT22;717;51.522;7.266;2022-07-22T02:49:51;21.80;99.90
1447;DHT22;717;51.522;7.266;2022-07-22T02:52:17;21.70;99.90
1447;DHT22;717;51.522;7.266;2022-07-22T02:54:44;21.70;99.90
1447;DHT22;717;51.522;7.266;2022-07-22T02:57:11;21.80;99.90
1447;DHT22;717;51.522;7.266;2022-07-22T02:59:38;21.80;99.90
1447;DHT22;717;51.522;7.266;2022-07-22T03:02:04;21.80;99.90
1447;DHT22;717;51.522;7.266;2022-07-22T03:04:32;21.80;99.90
1447;DHT22;717;51.522;7.266;2022-07-22T03:06:59;21.80;99.90
1447;DHT22;717;51.522;7.266;2022-07-22T03:09:26;21.80;99.90
1447;DHT22;717;51.522;7.266;2022-07-22T03:11:52;21.80;99.90
1447;DHT22;717;51.522;7.266;2022-07-22T03:14:19;21.80;99.90
1447;DHT22;717;51.522;7.266;2022-07-22T03:16:47;21.80;99.90
1447;DHT22;717;51.522;7.266;2022-07-22T03:19:14;21.70;99.90
1447;DHT22;717;51.522;7.266;2022-07-22T03:21:42;21.70;99.90
1447;DHT22;717;51.522;7.266;2022-07-22T03:24:09;21.70;99.90
1447;DHT22;717;51.522;7.266;2022-07-22T03:26:35;21.70;99.90
1447;DHT22;717;51.522;7.266;2022-07-22T03:29:02;21.70;99.90
1447;DHT22;717;51.522;7.266;2022-07-22T03:31:29;21.70;99.90
1447;DHT22;717;51.522;7.266;2022-07-22T03:33:55;21.70;99.90
1447;DHT22;717;51.522;7.266;2022-07-22T03:36:22;21.70;99.90
1447;DHT22;717;51.522;7.266;2022-07-22T03:38:50;21.70;99.90
1447;DHT22;717;51.522;7.266;2022-07-22T03:41:17;21.70;99.90
1447;DHT22;717;51.522;7.266;2022-07-22T03:43:43;21.70;99.90
1447;DHT22;717;51.522;7.266;2022-07-22T03:46:10;21.80;99.90
1447;DHT22;717;51.522;7.266;2022-07-22T03:48:37;21.70;99.90
1447;DHT22;717;51.522;7.266;2022-07-22T03:51:04;21.70;99.90
1447;DHT22;717;51.522;7.266;2022-07-22T03:53:31;21.80;99.90
1447;DHT22;717;51.522;7.266;2022-07-22T03:56:00;21.80;99.90
1447;DHT22;717;51.522;7.266;2022-07-22T03:58:27;21.80;99.90
1447;DHT22;717;51.522;7.266;2022-07-22T04:00:54;21.70;99.90
1447;DHT22;717;51.522;7.266;2022-07-22T04:03:21;21.80;99.90
1447;DHT22;717;51.522;7.266;2022-07-22T04:05:48;21.80;99.90
1447;DHT22;717;51.522;7.266;2022-07-22T04:08:16;21.80;99.90
1447;DHT22;717;51.522;7.266;2022-07-22T04:10:43;21.80;99.90
1447;DHT22;717;51.522;7.266;2022-07-22T04:13:11;21.80;99.90
1447;DHT22;717;51.522;7.266;2022-07-22T04:15:38;21.80;99.90
1447;DHT22;717;51.522;7.266;2022-07-22T04:18:04;21.80;99.90
1447;DHT22;717;51.522;7.266;2022-07-22T04:20:31;21.80;99.90
1447;DHT22;717;51.522;7.266;2022-07-22T04:22:58;21.80;99.90
1447;DHT22;717;51.522;7.266;2022-07-22T04:25:25;21.80;99.90
1447;DHT22;717;51.522;7.266;2022-07-22T04:27:51;21.80;99.90
1447;DHT22;717;51.522;7.266;2022-07-22T04:30:19;21.80;99.90
1447;DHT22;717;51.522;7.266;2022-07-22T04:32:46;21.80;99.90
1447;DHT22;717;51.522;7.266;2022-07-22T04:35:13;21.80;99.90
1447;DHT22;717;51.522;7.266;2022-07-22T04:37:39;21.80;99.90
1447;DHT22;717;51.522;7.266;2022-07-22T04:40:07;21.80;99.90
1447;DHT22;717;51.522;7.266;2022-07-22T04:42:34;21.80;99.90
1447;DHT22;717;51.522;7.266;2022-07-22T04:45:01;21.80;99.90
1447;DHT22;717;51.522;7.266;2022-07-22T04:47:29;21.80;99.90
1447;DHT22;717;51.522;7.266;2022-07-22T04:49:56;21.70;99.90
1447;DHT22;717;51.522;7.266;2022-07-22T04:52:22;21.80;99.90
1447;DHT22;717;51.522;7.266;2022-07-22T04:54:49;21.80;99.90
1447;DHT22;717;51.522;7.266;2022-07-22T04:57:16;21.80;99.90
1447;DHT22;717;51.522;7.266;2022-07-22T04:59:42;21.80;99.90
1447;DHT22;717;51.522;7.266;2022-07-22T05:02:09;21.80;99.90
1447;DHT22;717;51.522;7.266;2022-07-22T05:04:37;21.70;99.90
1447;DHT22;717;51.522;7.266;2022-07-22T05:07:04;21.80;99.90
1447;DHT22;717;51.522;7.266;2022-07-22T05:09:30;21.80;99.90
1447;DHT22;717;51.522;7.266;2022-07-22T05:11:57;21.70;99.90
1447;DHT22;717;51.522;7.266;2022-07-22T05:14:24;21.80;99.90
1447;DHT22;717;51.522;7.266;2022-07-22T05:16:51;21.70;99.90
1447;DHT22;717;51.522;7.266;2022-07-22T05:19:18;21.70;99.90
1447;DHT22;717;51.522;7.266;2022-07-22T05:21:46;21.70;99.90
1447;DHT22;717;51.522;7.266;2022-07-22T05:24:13;21.70;99.90
1447;DHT22;717;51.522;7.266;2022-07-22T05:26:40;21.70;99.90
1447;DHT22;717;51.522;7.266;2022-07-22T05:29:06;21.70;99.90
1447;DHT22;717;51.522;7.266;2022-07-22T05:31:33;21.70;99.90
1447;DHT22;717;51.522;7.266;2022-07-22T05:34:00;21.60;99.90
1447;DHT22;717;51.522;7.266;2022-07-22T05:36:28;21.60;99.90
1447;DHT22;717;51.522;7.266;2022-07-22T05:38:56;21.60;99.90
1447;DHT22;717;51.522;7.266;2022-07-22T05:41:23;21.60;99.90
1447;DHT22;717;51.522;7.266;2022-07-22T05:43:49;21.60;99.90
1447;DHT22;717;51.522;7.266;2022-07-22T05:46:16;21.60;99.90
1447;DHT22;717;51.522;7.266;2022-07-22T05:48:43;21.60;99.90
1447;DHT22;717;51.522;7.266;2022-07-22T05:51:12;21.60;99.90
1447;DHT22;717;51.522;7.266;2022-07-22T05:53:40;21.60;99.90
1447;DHT22;717;51.522;7.266;2022-07-22T05:56:09;21.60;99.90
1447;DHT22;717;51.522;7.266;2022-07-22T05:58:37;21.60;99.90
1447;DHT22;717;51.522;7.266;2022-07-22T06:01:03;21.60;99.90
1447;DHT22;717;51.522;7.266;2022-07-22T06:03:30;21.70;99.90
1447;DHT22;717;51.522;7.266;2022-07-22T06:05:57;21.70;99.90
1447;DHT22;717;51.522;7.266;2022-07-22T06:08:24;21.70;99.90
1447;DHT22;717;51.522;7.266;2022-07-22T06:10:50;21.70;99.90
1447;DHT22;717;51.522;7.266;2022-07-22T06:13:19;21.70;99.90
1447;DHT22;717;51.522;7.266;2022-07-22T06:15:45;21.70;99.90
1447;DHT22;717;51.522;7.266;2022-07-22T06:18:12;21.70;99.90
1447;DHT22;717;51.522;7.266;2022-07-22T06:20:39;21.80;99.90
1447;DHT22;717;51.522;7.266;2022-07-22T06:23:06;21.80;99.90
1447;DHT22;717;51.522;7.266;2022-07-22T06:25:32;21.80;99.90
1447;DHT22;717;51.522;7.266;2022-07-22T06:27:59;21.80;99.90
1447;DHT22;717;51.522;7.266;2022-07-22T06:30:27;21.80;99.90
1447;DHT22;717;51.522;7.266;2022-07-22T06:32:54;21.80;99.90
1447;DHT22;717;51.522;7.266;2022-07-22T06:35:21;21.80;99.90
1447;DHT22;717;51.522;7.266;2022-07-22T06:37:50;21.80;99.90
1447;DHT22;717;51.522;7.266;2022-07-22T06:40:16;21.90;99.90
1447;DHT22;717;51.522;7.266;2022-07-22T06:42:43;21.90;99.90
1447;DHT22;717;51.522;7.266;2022-07-22T06:45:10;21.90;99.90
1447;DHT22;717;51.522;7.266;2022-07-22T06:47:38;21.90;99.90
1447;DHT22;717;51.522;7.266;2022-07-22T06:50:07;21.90;99.90
1447;DHT22;717;51.522;7.266;2022-07-22T06:52:38;21.90;99.90
1447;DHT22;717;51.522;7.266;2022-07-22T06:55:05;21.90;99.90
1447;DHT22;717;51.522;7.266;2022-07-22T06:57:32;21.90;99.90
1447;DHT22;717;51.522;7.266;2022-07-22T06:59:59;21.90;99.90
1447;DHT22;717;51.522;7.266;2022-07-22T07:02:26;21.90;99.90
1447;DHT22;717;51.522;7.266;2022-07-22T07:04:54;22.00;99.90
1447;DHT22;717;51.522;7.266;2022-07-22T07:07:20;22.00;99.90
1447;DHT22;717;51.522;7.266;2022-07-22T07:09:47;22.00;99.90
1447;DHT22;717;51.522;7.266;2022-07-22T07:12:14;22.00;99.90
1447;DHT22;717;51.522;7.266;2022-07-22T07:14:41;22.00;99.90
1447;DHT22;717;51.522;7.266;2022-07-22T07:17:07;22.00;99.90
1447;DHT22;717;51.522;7.266;2022-07-22T07:19:34;22.10;99.90
1447;DHT22;717;51.522;7.266;2022-07-22T07:22:02;22.10;99.90
1447;DHT22;717;51.522;7.266;2022-07-22T07:24:29;22.10;99.90
1447;DHT22;717;51.522;7.266;2022-07-22T07:26:55;22.10;99.90
1447;DHT22;717;51.522;7.266;2022-07-22T07:29:22;22.10;99.90
1447;DHT22;717;51.522;7.266;2022-07-22T07:31:49;22.10;99.90
1447;DHT22;717;51.522;7.266;2022-07-22T07:34:16;22.10;99.90
1447;DHT22;717;51.522;7.266;2022-07-22T07:36:42;22.20;99.90
1447;DHT22;717;51.522;7.266;2022-07-22T07:39:10;22.20;99.90
1447;DHT22;717;51.522;7.266;2022-07-22T07:41:37;22.20;99.90
1447;DHT22;717;51.522;7.266;2022-07-22T07:44:04;22.20;99.90
1447;DHT22;717;51.522;7.266;2022-07-22T07:46:32;22.20;99.90
1447;DHT22;717;51.522;7.266;2022-07-22T07:48:59;22.20;99.90
1447;DHT22;717;51.522;7.266;2022-07-22T07:51:25;22.20;99.90
1447;DHT22;717;51.522;7.266;2022-07-22T07:53:52;22.20;99.90
1447;DHT22;717;51.522;7.266;2022-07-22T07:56:20;22.20;99.90
1447;DHT22;717;51.522;7.266;2022-07-22T07:58:47;22.20;99.90
1447;DHT22;717;51.522;7.266;2022-07-22T08:01:14;22.30;99.90
1447;DHT22;717;51.522;7.266;2022-07-22T08:03:40;22.30;99.90
1447;DHT22;717;51.522;7.266;2022-07-22T08:06:07;22.30;99.90
1447;DHT22;717;51.522;7.266;2022-07-22T08:08:34;22.30;99.90
1447;DHT22;717;51.522;7.266;2022-07-22T08:11:01;22.30;99.90
1447;DHT22;717;51.522;7.266;2022-07-22T08:13:29;22.30;99.90
1447;DHT22;717;51.522;7.266;2022-07-22T08:15:56;22.30;99.90
1447;DHT22;717;51.522;7.266;2022-07-22T08:18:23;22.20;99.90
1447;DHT22;717;51.522;7.266;2022-07-22T08:20:50;22.20;99.90
1447;DHT22;717;51.522;7.266;2022-07-22T08:23:17;22.20;99.90
1447;DHT22;717;51.522;7.266;2022-07-22T08:25:43;22.20;99.90
1447;DHT22;717;51.522;7.266;2022-07-22T08:28:10;22.20;99.90
1447;DHT22;717;51.522;7.266;2022-07-22T08:30:38;22.20;99.90
1447;DHT22;717;51.522;7.266;2022-07-22T08:33:05;22.20;99.90
1447;DHT22;717;51.522;7.266;2022-07-22T08:35:32;22.30;99.90
1447;DHT22;717;51.522;7.266;2022-07-22T08:37:59;22.30;99.90
1447;DHT22;717;51.522;7.266;2022-07-22T08:40:26;22.30;99.90
1447;DHT22;717;51.522;7.266;2022-07-22T08:42:53;22.30;99.90
1447;DHT22;717;51.522;7.266;2022-07-22T08:45:20;22.30;99.90
1447;DHT22;717;51.522;7.266;2022-07-22T08:47:49;22.30;99.90
1447;DHT22;717;51.522;7.266;2022-07-22T08:50:17;22.30;99.90
1447;DHT22;717;51.522;7.266;2022-07-22T08:52:43;22.30;99.90
1447;DHT22;717;51.522;7.266;2022-07-22T08:55:10;22.30;99.90
1447;DHT22;717;51.522;7.266;2022-07-22T08:57:37;22.30;99.90
1447;DHT22;717;51.522;7.266;2022-07-22T09:00:10;22.30;99.90
1447;DHT22;717;51.522;7.266;2022-07-22T09:02:39;22.30;99.90
1447;DHT22;717;51.522;7.266;2022-07-22T09:05:09;22.30;99.90
1447;DHT22;717;51.522;7.266;2022-07-22T09:07:38;22.40;99.90
1447;DHT22;717;51.522;7.266;2022-07-22T09:10:08;22.40;99.90
1447;DHT22;717;51.522;7.266;2022-07-22T09:12:50;22.40;99.90
1447;DHT22;717;51.522;7.266;2022-07-22T09:15:25;22.40;99.90
1447;DHT22;717;51.522;7.266;2022-07-22T09:17:52;22.40;99.90
1447;DHT22;717;51.522;7.266;2022-07-22T09:20:21;22.40;99.90
1447;DHT22;717;51.522;7.266;2022-07-22T09:22:49;22.40;99.90
1447;DHT22;717;51.522;7.266;2022-07-22T09:25:21;22.40;99.90
1447;DHT22;717;51.522;7.266;2022-07-22T09:27:50;22.40;99.90
1447;DHT22;717;51.522;7.266;2022-07-22T09:30:19;22.40;99.90
1447;DHT22;717;51.522;7.266;2022-07-22T09:32:46;22.40;99.90
1447;DHT22;717;51.522;7.266;2022-07-22T09:35:13;22.50;99.90
1447;DHT22;717;51.522;7.266;2022-07-22T09:37:49;22.50;99.90
1447;DHT22;717;51.522;7.266;2022-07-22T09:40:17;22.50;99.90
1447;DHT22;717;51.522;7.266;2022-07-22T09:42:46;22.50;99.90
1447;DHT22;717;51.522;7.266;2022-07-22T09:45:13;22.50;99.90
1447;DHT22;717;51.522;7.266;2022-07-22T09:47:41;22.50;99.90
1447;DHT22;717;51.522;7.266;2022-07-22T09:50:20;22.50;99.90
1447;DHT22;717;51.522;7.266;2022-07-22T09:52:50;22.50;99.90
1447;DHT22;717;51.522;7.266;2022-07-22T09:55:20;22.50;99.90
1447;DHT22;717;51.522;7.266;2022-07-22T09:57:48;22.50;99.90
1447;DHT22;717;51.522;7.266;2022-07-22T10:00:17;22.50;99.90
1447;DHT22;717;51.522;7.266;2022-07-22T10:02:46;22.50;99.90
1447;DHT22;717;51.522;7.266;2022-07-22T10:05:16;22.50;99.90
1447;DHT22;717;51.522;7.266;2022-07-22T10:07:44;22.50;99.90
1447;DHT22;717;51.522;7.266;2022-07-22T10:10:14;22.50;99.90
1447;DHT22;717;51.522;7.266;2022-07-22T10:12:42;22.50;99.90
1447;DHT22;717;51.522;7.266;2022-07-22T10:15:10;22.50;99.90
1447;DHT22;717;51.522;7.266;2022-07-22T10:17:38;22.50;99.90
1447;DHT22;717;51.522;7.266;2022-07-22T10:20:06;22.60;99.90
1447;DHT22;717;51.522;7.266;2022-07-22T10:23:04;22.60;99.90
1447;DHT22;717;51.522;7.266;2022-07-22T10:25:32;22.50;99.90
1447;DHT22;717;51.522;7.266;2022-07-22T10:28:20;22.60;99.90
1447;DHT22;717;51.522;7.266;2022-07-22T10:30:48;22.60;99.90
1447;DHT22;717;51.522;7.266;2022-07-22T10:33:18;22.60;99.90
1447;DHT22;717;51.522;7.266;2022-07-22T10:35:56;22.60;99.90
1447;DHT22;717;51.522;7.266;2022-07-22T10:38:26;22.70;99.90
1447;DHT22;717;51.522;7.266;2022-07-22T10:40:54;22.70;99.90
1447;DHT22;717;51.522;7.266;2022-07-22T10:43:23;22.70;99.90
1447;DHT22;717;51.522;7.266;2022-07-22T10:45:52;22.70;99.90
1447;DHT22;717;51.522;7.266;2022-07-22T10:48:22;22.70;99.90
1447;DHT22;717;51.522;7.266;2022-07-22T10:50:54;22.70;99.90
1447;DHT22;717;51.522;7.266;2022-07-22T10:53:25;22.70;99.90
1447;DHT22;717;51.522;7.266;2022-07-22T10:56:07;22.70;99.90
1447;DHT22;717;51.522;7.266;2022-07-22T10:58:46;22.70;99.90
1447;DHT22;717;51.522;7.266;2022-07-22T11:01:15;22.70;99.90
1447;DHT22;717;51.522;7.266;2022-07-22T11:03:44;22.80;99.90
1447;DHT22;717;51.522;7.266;2022-07-22T11:06:26;22.80;99.90
1447;DHT22;717;51.522;7.266;2022-07-22T11:08:56;22.80;99.90
1447;DHT22;717;51.522;7.266;2022-07-22T11:11:35;22.80;99.90
1447;DHT22;717;51.522;7.266;2022-07-22T11:14:05;22.80;99.90
1447;DHT22;717;51.522;7.266;2022-07-22T11:16:36;22.80;99.90
1447;DHT22;717;51.522;7.266;2022-07-22T11:19:03;22.80;99.90
1447;DHT22;717;51.522;7.266;2022-07-22T11:21:33;22.80;99.90
1447;DHT22;717;51.522;7.266;2022-07-22T11:24:03;22.80;99.90
1447;DHT22;717;51.522;7.266;2022-07-22T11:26:36;22.80;99.90
1447;DHT22;717;51.522;7.266;2022-07-22T11:29:04;22.90;99.90
1447;DHT22;717;51.522;7.266;2022-07-22T11:31:30;22.90;99.90
1447;DHT22;717;51.522;7.266;2022-07-22T11:34:05;22.90;99.90
1447;DHT22;717;51.522;7.266;2022-07-22T11:36:34;23.00;99.90
1447;DHT22;717;51.522;7.266;2022-07-22T11:39:03;23.00;99.90
1447;DHT22;717;51.522;7.266;2022-07-22T11:41:30;23.00;99.90
1447;DHT22;717;51.522;7.266;2022-07-22T11:43:58;23.00;99.90
1447;DHT22;717;51.522;7.266;2022-07-22T11:46:25;23.00;99.90
1447;DHT22;717;51.522;7.266;2022-07-22T11:48:53;23.10;99.90
1447;DHT22;717;51.522;7.266;2022-07-22T11:51:27;23.10;99.90
1447;DHT22;717;51.522;7.266;2022-07-22T11:53:54;23.10;99.90
1447;DHT22;717;51.522;7.266;2022-07-22T11:56:22;23.20;99.90
1447;DHT22;717;51.522;7.266;2022-07-22T11:58:50;23.20;99.90
1447;DHT22;717;51.522;7.266;2022-07-22T12:01:20;23.20;99.90
1447;DHT22;717;51.522;7.266;2022-07-22T12:03:49;23.20;99.90
1447;DHT22;717;51.522;7.266;2022-07-22T12:06:18;23.20;99.90
1447;DHT22;717;51.522;7.266;2022-07-22T12:08:47;23.30;99.90
1447;DHT22;717;51.522;7.266;2022-07-22T12:11:17;23.30;99.90
1447;DHT22;717;51.522;7.266;2022-07-22T12:13:47;23.30;99.90
1447;DHT22;717;51.522;7.266;2022-07-22T12:16:22;23.30;99.90
1447;DHT22;717;51.522;7.266;2022-07-22T12:18:55;23.40;99.90
1447;DHT22;717;51.522;7.266;2022-07-22T12:21:23;23.40;99.90
1447;DHT22;717;51.522;7.266;2022-07-22T12:23:51;23.40;99.90
1447;DHT22;717;51.522;7.266;2022-07-22T12:26:18;23.50;99.90
1447;DHT22;717;51.522;7.266;2022-07-22T12:28:46;23.50;99.90
1447;DHT22;717;51.522;7.266;2022-07-22T12:31:13;23.50;99.90
1447;DHT22;717;51.522;7.266;2022-07-22T12:33:49;23.50;99.90
1447;DHT22;717;51.522;7.266;2022-07-22T12:36:15;23.50;99.90
1447;DHT22;717;51.522;7.266;2022-07-22T12:38:42;23.50;99.90
1447;DHT22;717;51.522;7.266;2022-07-22T12:41:24;23.60;99.90
1447;DHT22;717;51.522;7.266;2022-07-22T12:43:53;23.70;99.90
1447;DHT22;717;51.522;7.266;2022-07-22T12:46:20;23.60;99.90
1447;DHT22;717;51.522;7.266;2022-07-22T12:48:54;23.70;99.90
1447;DHT22;717;51.522;7.266;2022-07-22T12:51:25;23.70;99.90
1447;DHT22;717;51.522;7.266;2022-07-22T12:53:52;23.70;99.90
1447;DHT22;717;51.522;7.266;2022-07-22T12:56:20;23.80;99.80
1447;DHT22;717;51.522;7.266;2022-07-22T12:58:47;23.80;99.60
1447;DHT22;717;51.522;7.266;2022-07-22T13:01:15;23.80;99.40
1447;DHT22;717;51.522;7.266;2022-07-22T13:03:41;23.80;99.30
1447;DHT22;717;51.522;7.266;2022-07-22T13:06:08;23.90;99.30
1447;DHT22;717;51.522;7.266;2022-07-22T13:08:36;23.90;99.40
1447;DHT22;717;51.522;7.266;2022-07-22T13:11:03;23.90;99.50
1447;DHT22;717;51.522;7.266;2022-07-22T13:13:30;23.90;99.50
1447;DHT22;717;51.522;7.266;2022-07-22T13:15:56;24.00;99.30
1447;DHT22;717;51.522;7.266;2022-07-22T13:18:24;24.00;99.20
1447;DHT22;717;51.522;7.266;2022-07-22T13:20:51;24.00;99.30
1447;DHT22;717;51.522;7.266;2022-07-22T13:23:18;24.00;99.30
1447;DHT22;717;51.522;7.266;2022-07-22T13:25:44;24.10;99.00
1447;DHT22;717;51.522;7.266;2022-07-22T13:28:11;24.00;98.80
1447;DHT22;717;51.522;7.266;2022-07-22T13:30:38;24.10;98.90
1447;DHT22;717;51.522;7.266;2022-07-22T13:33:04;24.10;99.00
1447;DHT22;717;51.522;7.266;2022-07-22T13:35:32;24.10;99.10
1447;DHT22;717;51.522;7.266;2022-07-22T13:37:59;24.10;99.50
1447;DHT22;717;51.522;7.266;2022-07-22T13:40:28;24.20;98.90
1447;DHT22;717;51.522;7.266;2022-07-22T13:42:54;24.20;98.70
1447;DHT22;717;51.522;7.266;2022-07-22T13:45:21;24.20;98.60
1447;DHT22;717;51.522;7.266;2022-07-22T13:47:48;24.30;98.60
1447;DHT22;717;51.522;7.266;2022-07-22T13:50:15;24.30;98.50
1447;DHT22;717;51.522;7.266;2022-07-22T13:52:43;24.30;98.40
1447;DHT22;717;51.522;7.266;2022-07-22T13:55:11;24.40;98.30
1447;DHT22;717;51.522;7.266;2022-07-22T13:57:39;24.40;98.10
1447;DHT22;717;51.522;7.266;2022-07-22T14:00:07;24.50;98.10
1447;DHT22;717;51.522;7.266;2022-07-22T14:02:34;24.50;98.20
1447;DHT22;717;51.522;7.266;2022-07-22T14:05:01;24.50;98.10
1447;DHT22;717;51.522;7.266;2022-07-22T14:07:28;24.60;97.90
1447;DHT22;717;51.522;7.266;2022-07-22T14:09:56;24.60;97.80
1447;DHT22;717;51.522;7.266;2022-07-22T14:12:22;24.70;97.50
1447;DHT22;717;51.522;7.266;2022-07-22T14:14:49;24.70;97.30
1447;DHT22;717;51.522;7.266;2022-07-22T14:17:16;24.70;97.30
1447;DHT22;717;51.522;7.266;2022-07-22T14:19:43;24.70;97.40
1447;DHT22;717;51.522;7.266;2022-07-22T14:22:09;24.80;97.30
1447;DHT22;717;51.522;7.266;2022-07-22T14:24:36;24.80;97.30
1447;DHT22;717;51.522;7.266;2022-07-22T14:27:04;24.90;97.20
1447;DHT22;717;51.522;7.266;2022-07-22T14:29:30;24.90;97.10
1447;DHT22;717;51.522;7.266;2022-07-22T14:31:57;25.00;97.20
1447;DHT22;717;51.522;7.266;2022-07-22T14:34:24;25.00;97.20
1447;DHT22;717;51.522;7.266;2022-07-22T14:36:50;25.00;97.20
1447;DHT22;717;51.522;7.266;2022-07-22T14:39:17;25.00;97.00
1447;DHT22;717;51.522;7.266;2022-07-22T14:41:44;25.10;96.90
1447;DHT22;717;51.522;7.266;2022-07-22T14:44:13;25.10;96.80
1447;DHT22;717;51.522;7.266;2022-07-22T14:46:40;25.20;96.50
1447;DHT22;717;51.522;7.266;2022-07-22T14:49:06;25.20;96.30
1447;DHT22;717;51.522;7.266;2022-07-22T14:51:33;25.30;96.30
1447;DHT22;717;51.522;7.266;2022-07-22T14:54:00;25.30;96.40
1447;DHT22;717;51.522;7.266;2022-07-22T14:56:27;25.30;96.40
1447;DHT22;717;51.522;7.266;2022-07-22T14:58:54;25.40;96.30
1447;DHT22;717;51.522;7.266;2022-07-22T15:01:22;25.40;96.40
1447;DHT22;717;51.522;7.266;2022-07-22T15:03:49;25.40;96.50
1447;DHT22;717;51.522;7.266;2022-07-22T15:06:15;25.50;96.20
1447;DHT22;717;51.522;7.266;2022-07-22T15:08:42;25.50;96.40
1447;DHT22;717;51.522;7.266;2022-07-22T15:11:09;25.50;96.50
1447;DHT22;717;51.522;7.266;2022-07-22T15:13:36;25.60;96.40
1447;DHT22;717;51.522;7.266;2022-07-22T15:16:02;25.60;96.30
1447;DHT22;717;51.522;7.266;2022-07-22T15:18:30;25.60;96.20
1447;DHT22;717;51.522;7.266;2022-07-22T15:20:57;25.70;96.10
1447;DHT22;717;51.522;7.266;2022-07-22T15:23:24;25.70;95.80
1447;DHT22;717;51.522;7.266;2022-07-22T15:25:53;25.70;95.80
1447;DHT22;717;51.522;7.266;2022-07-22T15:28:20;25.70;95.90
1447;DHT22;717;51.522;7.266;2022-07-22T15:30:47;25.70;95.90
1447;DHT22;717;51.522;7.266;2022-07-22T15:33:13;25.70;95.80
1447;DHT22;717;51.522;7.266;2022-07-22T15:35:41;25.70;95.80
1447;DHT22;717;51.522;7.266;2022-07-22T15:38:08;25.70;95.50
1447;DHT22;717;51.522;7.266;2022-07-22T15:40:35;25.70;95.50
1447;DHT22;717;51.522;7.266;2022-07-22T15:43:03;25.70;95.70
1447;DHT22;717;51.522;7.266;2022-07-22T15:45:30;25.70;95.80
1447;DHT22;717;51.522;7.266;2022-07-22T15:47:57;25.70;95.80
1447;DHT22;717;51.522;7.266;2022-07-22T15:50:24;25.70;95.70
1447;DHT22;717;51.522;7.266;2022-07-22T15:52:53;25.70;95.70
1447;DHT22;717;51.522;7.266;2022-07-22T15:55:20;25.70;95.80
1447;DHT22;717;51.522;7.266;2022-07-22T15:57:48;25.70;95.80
1447;DHT22;717;51.522;7.266;2022-07-22T16:00:32;25.70;95.70
1447;DHT22;717;51.522;7.266;2022-07-22T16:02:58;25.70;95.70
1447;DHT22;717;51.522;7.266;2022-07-22T16:05:26;25.70;95.60
1447;DHT22;717;51.522;7.266;2022-07-22T16:07:54;25.70;95.60
1447;DHT22;717;51.522;7.266;2022-07-22T16:10:21;25.70;95.50
1447;DHT22;717;51.522;7.266;2022-07-22T16:12:48;25.70;95.30
1447;DHT22;717;51.522;7.266;2022-07-22T16:15:15;25.70;95.20
1447;DHT22;717;51.522;7.266;2022-07-22T16:17:41;25.70;95.10
1447;DHT22;717;51.522;7.266;2022-07-22T16:20:08;25.70;95.00